Main page
METAR-TAF:

METAR-TAF

Airports :

Kalamata International Airport

Kalamata, Greece

latitude: 37-04N, longitude: 022-01E, elevation: 6 m

Current weather observation

The report was made 11 minutes ago, at 05:20 UTC
Calm wind
Temperature 24°C
Humidity 50%
Pressure 1009 hPa
Visibility 10 km or more
Few clouds at a height of 9000 ft

METAR: LGKL 210520Z 00000KT 9999 FEW090 24/13 Q1009

Time: 08:31 (05:31 UTC)

Forecast

The report was made 3 hours and 31 minutes ago, at 02:00 UTC
Forecast valid from 21 at 03 UTC to 21 at 12 UTC
Wind 12 kt from the North
Visibility 10 km or more
Few clouds at a height of 2500 ft
Temporary
from 21 at 09 UTC to 21 at 12 UTC
Wind 12 kt from the Southeast

TAF: LGKL 210200Z 2103/2112 35012KT 9999 FEW025 TEMPO 2109/2112 14012KT

Weather observations and forecasts of more than 4000 airports (METAR and TAF reports).

The available stations are represented by yellow and red dots on the map.

Hover mouse over dot to see the name of the station.

Then click to see weather observations and forecasts.

To change the map : click on the green buttons with a black cross to zoom in, on the green button with a dash to zoom out, or on the green arrows for adjacent maps.


METAR-TAF: